createdAt,value
2018-11-04T00:01:42.194Z,88.42
2018-11-04T00:04:13.000Z,87.93
2018-11-04T00:06:43.302Z,87.97
2018-11-04T00:09:14.583Z,87.70
2018-11-04T00:11:45.408Z,88.16
2018-11-04T00:14:15.844Z,87.85
2018-11-04T00:16:46.815Z,88.08
2018-11-04T00:19:17.007Z,88.30
2018-11-04T00:21:46.691Z,87.98
2018-11-04T00:24:16.562Z,87.99
2018-11-04T00:26:46.367Z,87.24
2018-11-04T00:29:16.103Z,87.54
2018-11-04T00:31:46.674Z,88.22
2018-11-04T00:34:17.193Z,87.72
2018-11-04T00:36:47.774Z,88.00
2018-11-04T00:39:18.398Z,88.32
2018-11-04T00:41:49.185Z,88.67
2018-11-04T00:44:20.576Z,88.71
2018-11-04T00:46:51.272Z,88.74
2018-11-04T00:49:21.813Z,88.35
2018-11-04T00:51:52.386Z,88.92
2018-11-04T00:54:22.872Z,89.13
2018-11-04T00:56:53.388Z,88.94
2018-11-04T00:59:23.767Z,89.26
2018-11-04T01:01:54.340Z,88.70
2018-11-04T01:04:24.723Z,88.29
2018-11-04T01:06:55.192Z,87.95
2018-11-04T01:09:25.578Z,87.71
2018-11-04T01:11:55.952Z,87.79
2018-11-04T01:14:26.622Z,88.15
2018-11-04T01:16:57.139Z,88.09
2018-11-04T01:19:27.459Z,88.32
2018-11-04T01:21:57.999Z,88.99
2018-11-04T01:24:28.493Z,88.86
2018-11-04T01:26:58.939Z,88.97
2018-11-04T01:29:29.447Z,88.83
2018-11-04T01:31:59.806Z,89.04
2018-11-04T01:34:30.181Z,89.08
2018-11-04T01:37:00.670Z,89.12
2018-11-04T01:39:31.076Z,88.71
2018-11-04T01:42:01.414Z,88.65
2018-11-04T01:44:31.732Z,88.68
2018-11-04T01:47:02.183Z,88.50
2018-11-04T01:49:32.881Z,88.43
2018-11-04T01:52:03.128Z,88.40
2018-11-04T01:54:33.407Z,88.21
2018-11-04T01:57:05.021Z,88.38
2018-11-04T01:59:35.915Z,88.16
2018-11-04T02:02:06.539Z,88.25
2018-11-04T02:04:36.786Z,88.57
2018-11-04T02:07:07.481Z,89.17
2018-11-04T02:09:37.835Z,88.90
2018-11-04T02:12:08.742Z,89.31
2018-11-04T02:14:39.239Z,88.97
2018-11-04T02:17:09.709Z,89.08
2018-11-04T02:19:40.205Z,88.66
2018-11-04T02:22:10.587Z,88.62
2018-11-04T02:24:41.032Z,88.89
2018-11-04T02:27:11.452Z,88.77
2018-11-04T02:29:41.695Z,89.06
2018-11-04T02:32:12.192Z,88.67
2018-11-04T02:34:42.735Z,88.48
2018-11-04T02:37:13.066Z,88.31
2018-11-04T02:39:43.663Z,87.97
2018-11-04T02:42:14.121Z,87.50
2018-11-04T02:44:44.479Z,87.75
2018-11-04T02:47:14.859Z,88.22
2018-11-04T02:49:45.160Z,88.33
2018-11-04T02:52:15.468Z,88.26
2018-11-04T02:54:45.796Z,88.54
2018-11-04T02:57:16.315Z,88.85
2018-11-04T02:59:46.788Z,88.91
2018-11-04T03:02:17.166Z,88.82
2018-11-04T03:04:47.516Z,88.58
2018-11-04T03:07:17.987Z,89.12
2018-11-04T03:09:48.396Z,88.49
2018-11-04T03:12:18.847Z,88.50
2018-11-04T03:14:49.066Z,88.58
2018-11-04T03:17:19.505Z,88.37
2018-11-04T03:19:49.935Z,88.25
2018-11-04T03:22:20.278Z,87.90
2018-11-04T03:24:50.678Z,87.53
2018-11-04T03:27:21.176Z,87.81
2018-11-04T03:29:51.548Z,87.88
2018-11-04T03:32:22.023Z,88.09
2018-11-04T03:34:52.313Z,88.94
2018-11-04T03:37:22.887Z,88.59
2018-11-04T03:39:53.497Z,88.86
2018-11-04T03:42:23.821Z,89.28
2018-11-04T03:44:54.336Z,88.77
2018-11-04T03:47:24.727Z,88.58
2018-11-04T03:49:55.055Z,88.47
2018-11-04T03:52:25.555Z,88.55
2018-11-04T03:54:55.857Z,88.30
2018-11-04T03:57:26.856Z,88.42
2018-11-04T03:59:57.232Z,88.52
2018-11-04T04:02:27.741Z,88.16
2018-11-04T04:04:58.308Z,88.33
2018-11-04T04:07:28.764Z,88.02
2018-11-04T04:09:59.525Z,88.16
2018-11-04T04:12:29.833Z,88.32
2018-11-04T04:15:00.097Z,87.96
2018-11-04T04:17:30.472Z,87.52
2018-11-04T04:20:00.994Z,87.70
2018-11-04T04:22:31.452Z,87.73
2018-11-04T04:25:01.816Z,87.61
2018-11-04T04:27:32.299Z,87.48
2018-11-04T04:30:02.846Z,87.17
2018-11-04T04:32:33.158Z,87.19
2018-11-04T04:35:03.458Z,87.09
2018-11-04T04:37:33.930Z,87.57
2018-11-04T04:40:04.441Z,87.60
2018-11-04T04:42:34.895Z,87.45
2018-11-04T04:45:05.626Z,87.50
2018-11-04T04:47:36.124Z,87.36
2018-11-04T04:50:06.682Z,87.62
2018-11-04T04:52:37.132Z,87.68
2018-11-04T04:55:07.892Z,87.20
2018-11-04T04:57:38.476Z,87.15
2018-11-04T05:00:09.455Z,86.87
2018-11-04T05:02:39.890Z,86.59
2018-11-04T05:05:10.374Z,86.70
2018-11-04T05:07:40.860Z,86.17
2018-11-04T05:10:11.215Z,86.02
2018-11-04T05:12:41.686Z,86.25
2018-11-04T05:15:11.977Z,86.62
2018-11-04T05:17:42.363Z,86.28
2018-11-04T05:20:12.731Z,85.87
2018-11-04T05:22:43.196Z,86.50
2018-11-04T05:25:13.792Z,86.70
2018-11-04T05:27:44.374Z,86.17
2018-11-04T05:30:14.878Z,86.15
2018-11-04T05:32:45.167Z,86.05
2018-11-04T05:35:15.608Z,85.13
2018-11-04T05:37:46.175Z,84.93
2018-11-04T05:40:16.516Z,85.76
2018-11-04T05:42:47.468Z,86.48
2018-11-04T05:45:17.772Z,86.82
2018-11-04T05:47:48.035Z,86.99
2018-11-04T05:50:18.498Z,87.42
2018-11-04T05:52:48.921Z,87.55
2018-11-04T05:55:19.347Z,87.71
2018-11-04T05:57:49.724Z,87.66
2018-11-04T06:00:20.145Z,87.91
2018-11-04T06:02:53.375Z,88.04
2018-11-04T06:05:23.905Z,87.73
2018-11-04T06:07:54.088Z,87.55
2018-11-04T06:10:24.501Z,87.07
2018-11-04T06:12:54.959Z,86.49
2018-11-04T06:15:25.503Z,86.55
2018-11-04T06:17:55.868Z,86.32
2018-11-04T06:20:26.283Z,86.45
2018-11-04T06:22:56.605Z,86.51
2018-11-04T06:25:27.118Z,86.19
2018-11-04T06:27:57.705Z,85.78
2018-11-04T06:30:28.188Z,85.84
2018-11-04T06:32:58.543Z,86.49
2018-11-04T06:35:28.933Z,86.74
2018-11-04T06:37:59.383Z,87.46
2018-11-04T06:40:29.699Z,87.76
2018-11-04T06:43:00.975Z,87.72
2018-11-04T06:45:31.451Z,87.99
2018-11-04T06:48:02.063Z,87.93
2018-11-04T06:50:32.543Z,87.79
2018-11-04T06:53:02.915Z,87.63
2018-11-04T06:55:33.279Z,87.37
2018-11-04T06:58:03.747Z,87.24
2018-11-04T07:00:34.280Z,87.25
2018-11-04T07:03:04.851Z,87.17
2018-11-04T07:05:35.208Z,87.26
2018-11-04T07:08:05.799Z,86.50
2018-11-04T07:10:36.180Z,86.80
2018-11-04T07:13:06.764Z,87.23
2018-11-04T07:15:37.159Z,87.34
2018-11-04T07:18:07.620Z,87.52
2018-11-04T07:20:37.895Z,87.75
2018-11-04T07:23:08.492Z,87.56
2018-11-04T07:25:39.673Z,87.42
2018-11-04T07:28:10.175Z,87.59
2018-11-04T07:30:40.643Z,87.28
2018-11-04T07:33:11.040Z,87.22
2018-11-04T07:35:41.527Z,87.64
2018-11-04T07:38:11.744Z,87.91
2018-11-04T07:40:42.075Z,87.76
2018-11-04T07:43:12.453Z,88.19
2018-11-04T07:45:42.708Z,88.07
2018-11-04T07:48:13.181Z,88.24
2018-11-04T07:50:43.653Z,88.16
2018-11-04T07:53:14.127Z,87.86
2018-11-04T07:55:44.540Z,88.17
2018-11-04T07:58:15.026Z,87.68
2018-11-04T08:00:45.509Z,87.62
2018-11-04T08:03:15.817Z,87.90
2018-11-04T08:05:46.153Z,87.90
2018-11-04T08:08:16.684Z,88.51
2018-11-04T08:10:47.056Z,88.85
2018-11-04T08:13:17.433Z,88.47
2018-11-04T08:15:47.917Z,88.27
2018-11-04T08:18:18.268Z,88.17
2018-11-04T08:20:48.553Z,88.70
2018-11-04T08:23:19.048Z,88.37
2018-11-04T08:25:49.320Z,88.34
2018-11-04T08:28:19.778Z,87.94
2018-11-04T08:30:50.056Z,87.57
2018-11-04T08:33:20.956Z,86.62
2018-11-04T08:35:51.361Z,85.61
2018-11-04T08:38:21.708Z,85.57
2018-11-04T08:40:52.013Z,85.60
2018-11-04T08:43:22.479Z,85.94
2018-11-04T08:45:52.926Z,85.95
2018-11-04T08:48:23.211Z,85.70
2018-11-04T08:50:53.616Z,84.37
2018-11-04T08:53:24.087Z,83.82
2018-11-04T08:55:54.503Z,83.57
2018-11-04T08:58:25.067Z,82.86
2018-11-04T09:00:56.437Z,83.50
2018-11-04T09:03:26.842Z,83.88
2018-11-04T09:05:57.243Z,83.47
2018-11-04T09:08:27.605Z,83.18
2018-11-04T09:10:57.997Z,83.73
2018-11-04T09:13:28.474Z,83.06
2018-11-04T09:15:58.965Z,81.91
2018-11-04T09:18:29.332Z,81.48
2018-11-04T09:20:59.699Z,82.00
2018-11-04T09:23:30.266Z,82.62
2018-11-04T09:26:00.601Z,81.40
2018-11-04T09:28:30.938Z,80.66
2018-11-04T09:31:01.435Z,81.80
2018-11-04T09:33:31.798Z,80.95
2018-11-04T09:36:02.298Z,80.99
2018-11-04T09:38:32.777Z,79.82
2018-11-04T09:41:03.557Z,78.25
2018-11-04T09:43:33.832Z,77.94
2018-11-04T09:46:04.216Z,77.96
2018-11-04T09:48:34.984Z,76.98
2018-11-04T09:51:05.607Z,77.75
2018-11-04T09:53:35.991Z,77.69
2018-11-04T09:56:06.685Z,77.73
2018-11-04T09:58:37.081Z,78.04
2018-11-04T10:01:07.661Z,77.23
2018-11-04T10:03:37.996Z,77.24
2018-11-04T10:06:08.259Z,76.94
2018-11-04T10:08:38.840Z,78.02
2018-11-04T10:11:09.265Z,77.85
2018-11-04T10:13:40.290Z,77.01
2018-11-04T10:16:10.831Z,76.70
2018-11-04T10:18:41.447Z,76.31
2018-11-04T10:21:12.634Z,76.15
2018-11-04T10:23:42.704Z,75.46
2018-11-04T10:26:13.360Z,74.33
2018-11-04T10:28:43.933Z,76.40
2018-11-04T10:31:14.348Z,76.12
2018-11-04T10:36:14.113Z,75.00
2018-11-04T10:38:44.757Z,75.33
2018-11-04T10:41:15.252Z,74.24
2018-11-04T10:43:45.475Z,74.37
2018-11-04T10:46:16.041Z,74.02
2018-11-04T10:48:46.396Z,74.70
2018-11-04T10:51:16.885Z,74.22
2018-11-04T10:53:47.114Z,73.99
2018-11-04T10:56:17.521Z,74.10
2018-11-04T10:58:48.072Z,73.25
2018-11-04T11:01:18.480Z,74.36
2018-11-04T11:03:48.771Z,72.89
2018-11-04T11:06:19.130Z,73.03
2018-11-04T11:08:49.732Z,72.50
2018-11-04T11:11:20.203Z,72.50
2018-11-04T11:13:50.683Z,72.93
2018-11-04T11:16:21.181Z,72.27
2018-11-04T11:18:51.544Z,72.34
2018-11-04T11:21:21.931Z,71.34
2018-11-04T11:23:52.413Z,71.92
2018-11-04T11:26:22.775Z,71.21
2018-11-04T11:28:53.160Z,71.85
2018-11-04T11:31:23.751Z,71.25
2018-11-04T11:33:54.536Z,71.47
2018-11-04T11:36:25.037Z,70.00
2018-11-04T11:38:55.501Z,69.79
2018-11-04T11:41:25.856Z,70.38
2018-11-04T11:43:56.367Z,70.25
2018-11-04T11:46:27.005Z,70.56
2018-11-04T11:48:57.597Z,70.04
2018-11-04T11:51:28.082Z,70.52
2018-11-04T11:53:58.507Z,70.81
2018-11-04T11:56:28.880Z,70.62
2018-11-04T11:58:59.441Z,70.39
2018-11-04T12:01:29.824Z,71.32
2018-11-04T12:04:00.252Z,71.51
2018-11-04T12:06:30.712Z,71.42
2018-11-04T12:09:01.084Z,71.82
2018-11-04T12:11:31.481Z,72.74
2018-11-04T12:14:01.823Z,72.30
2018-11-04T12:16:32.232Z,72.87
2018-11-04T12:19:02.723Z,71.21
2018-11-04T12:21:33.195Z,71.49
2018-11-04T12:24:03.668Z,72.36
2018-11-04T12:26:34.144Z,72.45
2018-11-04T12:29:04.629Z,71.08
2018-11-04T12:31:35.013Z,70.95
2018-11-04T12:34:05.704Z,70.80
2018-11-04T12:36:36.272Z,71.38
2018-11-04T12:39:09.072Z,71.17
2018-11-04T12:41:39.623Z,71.40
2018-11-04T12:44:10.228Z,72.09
2018-11-04T12:46:40.563Z,71.79
2018-11-04T12:49:10.874Z,70.75
2018-11-04T12:51:45.111Z,71.64
2018-11-04T12:54:15.674Z,72.40
2018-11-04T12:56:46.166Z,72.16
2018-11-04T12:59:16.844Z,72.29
2018-11-04T13:01:47.284Z,72.83
2018-11-04T13:04:17.733Z,72.57
2018-11-04T13:06:48.154Z,72.75
2018-11-04T13:09:18.659Z,72.96
2018-11-04T13:11:49.097Z,73.39
2018-11-04T13:14:19.532Z,73.16
2018-11-04T13:16:49.940Z,73.01
2018-11-04T13:19:20.415Z,73.23
2018-11-04T13:21:51.932Z,73.23
2018-11-04T13:24:22.516Z,73.49
2018-11-04T13:26:53.026Z,73.88
2018-11-04T13:29:23.435Z,73.73
2018-11-04T13:31:53.724Z,73.70
2018-11-04T13:34:24.464Z,74.00
2018-11-04T13:36:55.028Z,73.86
2018-11-04T13:39:25.410Z,74.23
2018-11-04T13:41:55.964Z,74.31
2018-11-04T13:44:26.344Z,74.23
2018-11-04T13:46:56.944Z,75.23
2018-11-04T13:49:27.293Z,74.67
2018-11-04T13:51:57.774Z,74.57
2018-11-04T13:54:28.300Z,75.47
2018-11-04T13:56:58.664Z,75.31
2018-11-04T13:59:29.217Z,74.73
2018-11-04T14:01:59.727Z,74.92
2018-11-04T14:04:30.836Z,75.52
2018-11-04T14:07:01.305Z,76.08
2018-11-04T14:09:31.555Z,76.43
2018-11-04T14:12:02.063Z,75.92
2018-11-04T14:14:32.631Z,76.08
2018-11-04T14:17:03.163Z,76.34
2018-11-04T14:19:34.271Z,76.77
2018-11-04T14:22:04.923Z,76.31
2018-11-04T14:24:35.512Z,76.33
2018-11-04T14:27:06.093Z,76.20
2018-11-04T14:29:36.318Z,76.91
2018-11-04T14:32:06.984Z,77.48
2018-11-04T14:34:37.327Z,77.38
2018-11-04T14:37:07.907Z,77.82
2018-11-04T14:39:38.258Z,78.23
2018-11-04T14:42:09.080Z,77.71
2018-11-04T14:44:39.459Z,78.18
2018-11-04T14:47:09.804Z,79.00
2018-11-04T14:49:40.312Z,78.27
2018-11-04T14:52:10.728Z,78.39
2018-11-04T14:54:41.052Z,78.59
2018-11-04T14:57:11.552Z,78.66
2018-11-04T14:59:42.129Z,78.54
2018-11-04T15:02:12.743Z,78.02
2018-11-04T15:04:43.228Z,78.78
2018-11-04T15:07:13.700Z,78.69
2018-11-04T15:09:44.169Z,78.12
2018-11-04T15:12:14.572Z,78.20
2018-11-04T15:14:45.211Z,78.70
2018-11-04T15:17:15.715Z,77.98
2018-11-04T15:19:46.196Z,78.58
2018-11-04T15:22:16.584Z,78.33
2018-11-04T15:24:47.066Z,79.50
2018-11-04T15:27:19.206Z,79.65
2018-11-04T15:29:49.774Z,79.43
2018-11-04T15:32:20.157Z,78.94
2018-11-04T15:34:50.661Z,79.50
2018-11-04T15:37:20.889Z,79.38
2018-11-04T15:39:51.424Z,80.19
2018-11-04T15:42:21.826Z,80.21
2018-11-04T15:44:52.137Z,80.30
2018-11-04T15:47:22.531Z,80.15
2018-11-04T15:49:52.992Z,79.61
2018-11-04T15:52:23.464Z,79.71
2018-11-04T15:54:53.921Z,79.01
2018-11-04T15:57:24.957Z,79.81
2018-11-04T15:59:55.359Z,80.03
2018-11-04T16:02:25.867Z,79.87
2018-11-04T16:04:56.319Z,79.62
2018-11-04T16:07:26.791Z,79.53
2018-11-04T16:09:57.164Z,79.94
2018-11-04T16:12:27.580Z,79.50
2018-11-04T16:14:57.956Z,80.06
2018-11-04T16:17:28.411Z,80.09
2018-11-04T16:19:59.277Z,79.86
2018-11-04T16:22:29.691Z,80.84
2018-11-04T16:25:00.058Z,80.13
2018-11-04T16:27:30.531Z,79.62
2018-11-04T16:30:00.939Z,79.99
2018-11-04T16:32:31.411Z,80.14
2018-11-04T16:35:01.773Z,80.36
2018-11-04T16:37:32.143Z,79.87
2018-11-04T16:40:02.554Z,79.72
2018-11-04T16:42:32.935Z,79.97
2018-11-04T16:45:04.199Z,80.37
2018-11-04T16:47:34.608Z,79.98
2018-11-04T16:50:05.805Z,79.66
2018-11-04T16:52:36.305Z,80.45
2018-11-04T16:55:07.643Z,80.57
2018-11-04T16:57:38.079Z,80.28
2018-11-04T17:00:09.961Z,80.65
2018-11-04T17:02:40.519Z,81.24
2018-11-04T17:05:11.920Z,80.81
2018-11-04T17:07:42.885Z,81.84
2018-11-04T17:10:13.427Z,81.69
2018-11-04T17:12:43.820Z,81.54
2018-11-04T17:15:15.160Z,81.76
2018-11-04T17:17:45.636Z,81.84
2018-11-04T17:20:18.594Z,82.62
2018-11-04T17:22:49.103Z,81.02
2018-11-04T17:25:19.577Z,82.10
2018-11-04T17:27:49.913Z,82.47
2018-11-04T17:30:20.570Z,81.92
2018-11-04T17:32:50.920Z,81.64
2018-11-04T17:35:21.288Z,81.50
2018-11-04T17:37:51.809Z,81.94
2018-11-04T17:40:22.171Z,82.67
2018-11-04T17:42:52.459Z,81.66
2018-11-04T17:45:23.347Z,82.09
2018-11-04T17:47:53.724Z,82.60
2018-11-04T17:50:24.164Z,82.28
2018-11-04T17:52:54.378Z,82.72
2018-11-04T17:55:24.844Z,82.96
2018-11-04T17:57:55.249Z,83.19
2018-11-04T18:00:25.737Z,83.71
2018-11-04T18:02:56.333Z,82.79
2018-11-04T18:05:27.577Z,82.72
2018-11-04T18:07:58.022Z,82.94
2018-11-04T18:10:28.385Z,82.81
2018-11-04T18:12:59.426Z,82.92
2018-11-04T18:15:30.067Z,82.19
2018-11-04T18:18:00.556Z,82.15
2018-11-04T18:20:31.179Z,82.04
2018-11-04T18:23:01.516Z,82.73
2018-11-04T18:25:31.870Z,82.58
2018-11-04T18:28:02.276Z,82.22
2018-11-04T18:30:32.775Z,81.68
2018-11-04T18:33:03.349Z,81.97
2018-11-04T18:35:33.712Z,82.21
2018-11-04T18:38:04.092Z,81.22
2018-11-04T18:40:34.671Z,81.66
2018-11-04T18:43:05.294Z,81.76
2018-11-04T18:45:35.538Z,81.15
2018-11-04T18:48:06.029Z,81.18
2018-11-04T18:50:36.694Z,80.89
2018-11-04T18:53:07.487Z,80.76
2018-11-04T18:55:37.866Z,80.25
2018-11-04T18:58:08.441Z,79.87
2018-11-04T19:00:38.952Z,79.09
2018-11-04T19:03:09.438Z,79.02
2018-11-04T19:05:39.949Z,79.90
2018-11-04T19:08:10.274Z,79.97
2018-11-04T19:10:40.847Z,79.63
2018-11-04T19:13:11.262Z,80.34
2018-11-04T19:15:43.110Z,79.97
2018-11-04T19:18:16.390Z,79.98
2018-11-04T19:20:46.994Z,79.75
2018-11-04T19:23:17.671Z,79.79
2018-11-04T19:25:48.158Z,80.18
2018-11-04T19:28:18.565Z,80.11
2018-11-04T19:30:49.118Z,79.67
2018-11-04T19:33:19.449Z,79.62
2018-11-04T19:35:49.991Z,80.04
2018-11-04T19:38:20.909Z,79.96
2018-11-04T19:40:51.441Z,79.58
2018-11-04T19:43:21.731Z,79.64
2018-11-04T19:45:52.346Z,80.28
2018-11-04T19:48:22.621Z,79.77
2018-11-04T19:50:53.367Z,80.64
2018-11-04T19:53:23.651Z,81.20
2018-11-04T19:55:54.145Z,80.39
2018-11-04T19:58:24.570Z,80.45
2018-11-04T20:00:55.215Z,80.46
2018-11-04T20:03:25.719Z,80.15
2018-11-04T20:05:56.282Z,80.26
2018-11-04T20:08:27.236Z,80.38
2018-11-04T20:10:57.698Z,80.54
2018-11-04T20:13:33.195Z,81.01
2018-11-04T20:16:03.619Z,80.55
2018-11-04T20:18:39.107Z,81.21
2018-11-04T20:21:09.540Z,80.66
2018-11-04T20:23:39.971Z,81.46
2018-11-04T20:26:11.396Z,80.19
2018-11-04T20:28:41.876Z,81.06
2018-11-04T20:31:17.527Z,81.27
2018-11-04T20:33:47.973Z,80.50
2018-11-04T20:36:18.841Z,80.44
2018-11-04T20:38:54.493Z,80.83
2018-11-04T20:41:29.718Z,80.66
2018-11-04T20:44:00.665Z,80.67
2018-11-04T20:46:31.095Z,80.82
2018-11-04T20:49:06.431Z,80.96
2018-11-04T20:51:36.933Z,80.68
2018-11-04T20:54:07.945Z,81.17
2018-11-04T20:56:43.204Z,80.93
2018-11-04T20:59:13.619Z,81.33
2018-11-04T21:01:44.205Z,81.08
2018-11-04T21:04:14.805Z,80.96
2018-11-04T21:06:45.326Z,81.33
2018-11-04T21:09:16.206Z,81.13
2018-11-04T21:11:46.800Z,81.23
2018-11-04T21:14:17.271Z,81.82
2018-11-04T21:16:47.905Z,81.12
2018-11-04T21:19:18.244Z,81.76
2018-11-04T21:21:48.900Z,80.80
2018-11-04T21:24:19.493Z,80.78
2018-11-04T21:26:49.897Z,81.31
2018-11-04T21:29:20.634Z,80.88
2018-11-04T21:31:50.948Z,80.57
2018-11-04T21:34:21.456Z,81.43
2018-11-04T21:36:52.877Z,80.98
2018-11-04T21:39:23.205Z,81.08
2018-11-04T21:41:53.704Z,81.36
2018-11-04T21:44:24.130Z,81.36
2018-11-04T21:46:54.507Z,81.12
2018-11-04T21:49:25.020Z,81.47
2018-11-04T21:51:55.409Z,81.65
2018-11-04T21:54:25.835Z,81.89
2018-11-04T21:56:56.503Z,82.17
2018-11-04T21:59:26.823Z,81.72
2018-11-04T22:01:57.391Z,81.91
2018-11-04T22:04:27.866Z,82.80
2018-11-04T22:06:58.399Z,82.47
2018-11-04T22:09:29.272Z,82.70
2018-11-04T22:11:59.863Z,82.18
2018-11-04T22:14:30.366Z,81.84
2018-11-04T22:17:02.935Z,82.25
2018-11-04T22:19:33.374Z,82.09
2018-11-04T22:22:03.735Z,81.83
2018-11-04T22:24:34.228Z,81.93
2018-11-04T22:27:04.608Z,82.31
2018-11-04T22:29:34.914Z,82.10
2018-11-04T22:32:05.251Z,81.32
2018-11-04T22:34:35.611Z,81.68
2018-11-04T22:37:06.239Z,80.80
2018-11-04T22:39:36.852Z,80.99
2018-11-04T22:42:07.441Z,80.45
2018-11-04T22:44:37.982Z,81.00
2018-11-04T22:47:08.256Z,81.15
2018-11-04T22:49:38.615Z,81.12
2018-11-04T22:52:09.097Z,80.78
2018-11-04T22:54:39.600Z,80.35
2018-11-04T22:57:09.974Z,80.85
2018-11-04T22:59:40.266Z,81.10
2018-11-04T23:02:10.699Z,81.23
2018-11-04T23:04:46.251Z,80.99
2018-11-04T23:07:16.597Z,80.91
2018-11-04T23:09:47.201Z,80.75
2018-11-04T23:12:17.892Z,81.17
2018-11-04T23:14:48.432Z,80.63
2018-11-04T23:17:18.815Z,80.75
2018-11-04T23:19:49.114Z,81.21
2018-11-04T23:22:19.618Z,81.48
2018-11-04T23:24:50.204Z,81.29
2018-11-04T23:27:20.705Z,81.17
2018-11-04T23:29:50.988Z,80.37
2018-11-04T23:32:21.528Z,80.80
2018-11-04T23:34:51.894Z,80.47
2018-11-04T23:37:22.412Z,80.64
2018-11-04T23:39:53.443Z,81.20
2018-11-04T23:42:23.831Z,80.75
2018-11-04T23:44:54.040Z,81.10
2018-11-04T23:47:24.599Z,81.12
2018-11-04T23:49:55.012Z,80.87
2018-11-04T23:52:25.497Z,80.98
2018-11-04T23:54:55.752Z,81.59
2018-11-04T23:57:26.173Z,81.92
2018-11-04T23:59:56.549Z,81.58
